sensor_id;sensor_type;location;lat;lon;timestamp;temperature;humidity
61912;DHT22;49973;52.084;5.412;2023-06-22T00:00:43;18.70;99.90
61912;DHT22;49973;52.084;5.412;2023-06-22T00:03:13;18.60;99.90
61912;DHT22;49973;52.084;5.412;2023-06-22T00:05:42;18.60;99.90
61912;DHT22;49973;52.084;5.412;2023-06-22T00:08:10;18.60;99.90
61912;DHT22;49973;52.084;5.412;2023-06-22T00:10:40;18.70;99.90
61912;DHT22;49973;52.084;5.412;2023-06-22T00:13:09;18.60;99.90
61912;DHT22;49973;52.084;5.412;2023-06-22T00:15:39;18.60;99.90
61912;DHT22;49973;52.084;5.412;2023-06-22T00:18:09;18.60;99.90
61912;DHT22;49973;52.084;5.412;2023-06-22T00:20:41;18.60;99.90
61912;DHT22;49973;52.084;5.412;2023-06-22T00:23:10;18.50;99.90
61912;DHT22;49973;52.084;5.412;2023-06-22T00:25:39;18.50;99.90
61912;DHT22;49973;52.084;5.412;2023-06-22T00:28:08;18.40;99.90
61912;DHT22;49973;52.084;5.412;2023-06-22T00:30:37;18.40;99.90
61912;DHT22;49973;52.084;5.412;2023-06-22T00:33:06;18.40;99.90
61912;DHT22;49973;52.084;5.412;2023-06-22T00:35:35;18.30;99.90
61912;DHT22;49973;52.084;5.412;2023-06-22T00:38:05;18.20;99.90
61912;DHT22;49973;52.084;5.412;2023-06-22T00:40:34;18.20;99.90
61912;DHT22;49973;52.084;5.412;2023-06-22T00:43:03;18.10;99.90
61912;DHT22;49973;52.084;5.412;2023-06-22T00:45:32;18.10;99.90
61912;DHT22;49973;52.084;5.412;2023-06-22T00:48:01;18.00;99.90
61912;DHT22;49973;52.084;5.412;2023-06-22T00:50:32;18.00;99.90
61912;DHT22;49973;52.084;5.412;2023-06-22T00:53:05;18.00;99.90
61912;DHT22;49973;52.084;5.412;2023-06-22T00:55:37;17.90;99.90
61912;DHT22;49973;52.084;5.412;2023-06-22T00:58:06;17.90;99.90
61912;DHT22;49973;52.084;5.412;2023-06-22T01:00:38;17.90;99.90
61912;DHT22;49973;52.084;5.412;2023-06-22T01:03:08;17.80;99.90
61912;DHT22;49973;52.084;5.412;2023-06-22T01:05:38;17.80;99.90
61912;DHT22;49973;52.084;5.412;2023-06-22T01:08:26;17.80;99.90
61912;DHT22;49973;52.084;5.412;2023-06-22T01:11:03;17.80;99.90
61912;DHT22;49973;52.084;5.412;2023-06-22T01:13:39;17.80;99.90
61912;DHT22;49973;52.084;5.412;2023-06-22T01:16:14;17.70;99.90
61912;DHT22;49973;52.084;5.412;2023-06-22T01:18:46;17.70;99.90
61912;DHT22;49973;52.084;5.412;2023-06-22T01:21:17;17.70;99.90
61912;DHT22;49973;52.084;5.412;2023-06-22T01:23:56;17.70;99.90
61912;DHT22;49973;52.084;5.412;2023-06-22T01:26:37;17.60;99.90
61912;DHT22;49973;52.084;5.412;2023-06-22T01:29:11;17.60;99.90
61912;DHT22;49973;52.084;5.412;2023-06-22T01:31:42;17.60;99.90
61912;DHT22;49973;52.084;5.412;2023-06-22T01:34:12;17.60;99.90
61912;DHT22;49973;52.084;5.412;2023-06-22T01:36:42;17.50;99.90
61912;DHT22;49973;52.084;5.412;2023-06-22T01:39:11;17.50;99.90
61912;DHT22;49973;52.084;5.412;2023-06-22T01:41:43;17.50;99.90
61912;DHT22;49973;52.084;5.412;2023-06-22T01:44:17;17.50;99.90
61912;DHT22;49973;52.084;5.412;2023-06-22T01:46:46;17.40;99.90
61912;DHT22;49973;52.084;5.412;2023-06-22T01:49:17;17.40;99.90
61912;DHT22;49973;52.084;5.412;2023-06-22T01:51:46;17.30;99.90
61912;DHT22;49973;52.084;5.412;2023-06-22T01:54:15;17.30;99.90
61912;DHT22;49973;52.084;5.412;2023-06-22T01:56:43;17.30;99.90
61912;DHT22;49973;52.084;5.412;2023-06-22T01:59:18;17.20;99.90
61912;DHT22;49973;52.084;5.412;2023-06-22T02:01:52;17.20;99.90
61912;DHT22;49973;52.084;5.412;2023-06-22T02:04:27;17.10;99.90
61912;DHT22;49973;52.084;5.412;2023-06-22T02:06:58;17.10;99.90
61912;DHT22;49973;52.084;5.412;2023-06-22T02:09:29;17.10;99.90
61912;DHT22;49973;52.084;5.412;2023-06-22T02:12:00;17.00;99.90
61912;DHT22;49973;52.084;5.412;2023-06-22T02:14:33;17.00;99.90
61912;DHT22;49973;52.084;5.412;2023-06-22T02:17:03;17.00;99.90
61912;DHT22;49973;52.084;5.412;2023-06-22T02:19:36;17.00;99.90
61912;DHT22;49973;52.084;5.412;2023-06-22T02:22:06;17.00;99.90
61912;DHT22;49973;52.084;5.412;2023-06-22T02:24:35;16.90;99.90
61912;DHT22;49973;52.084;5.412;2023-06-22T02:27:04;16.90;99.90
61912;DHT22;49973;52.084;5.412;2023-06-22T02:29:36;16.90;99.90
61912;DHT22;49973;52.084;5.412;2023-06-22T02:32:05;16.90;99.90
61912;DHT22;49973;52.084;5.412;2023-06-22T02:34:34;16.80;99.90
61912;DHT22;49973;52.084;5.412;2023-06-22T02:37:04;16.80;99.90
61912;DHT22;49973;52.084;5.412;2023-06-22T02:39:33;16.80;99.90
61912;DHT22;49973;52.084;5.412;2023-06-22T02:42:02;16.80;99.90
61912;DHT22;49973;52.084;5.412;2023-06-22T02:44:30;16.80;99.90
61912;DHT22;49973;52.084;5.412;2023-06-22T02:47:00;16.80;99.90
61912;DHT22;49973;52.084;5.412;2023-06-22T02:49:29;16.80;99.90
61912;DHT22;49973;52.084;5.412;2023-06-22T02:51:58;16.80;99.90
61912;DHT22;49973;52.084;5.412;2023-06-22T02:54:27;16.90;99.90
61912;DHT22;49973;52.084;5.412;2023-06-22T02:56:56;16.70;99.90
61912;DHT22;49973;52.084;5.412;2023-06-22T02:59:25;16.70;99.90
61912;DHT22;49973;52.084;5.412;2023-06-22T03:02:02;16.60;99.90
61912;DHT22;49973;52.084;5.412;2023-06-22T03:04:32;16.60;99.90
61912;DHT22;49973;52.084;5.412;2023-06-22T03:07:01;16.60;99.90
61912;DHT22;49973;52.084;5.412;2023-06-22T03:09:32;16.60;99.90
61912;DHT22;49973;52.084;5.412;2023-06-22T03:12:01;16.50;99.90
61912;DHT22;49973;52.084;5.412;2023-06-22T03:14:38;16.50;99.90
61912;DHT22;49973;52.084;5.412;2023-06-22T03:17:09;16.50;99.90
61912;DHT22;49973;52.084;5.412;2023-06-22T03:19:38;16.50;99.90
61912;DHT22;49973;52.084;5.412;2023-06-22T03:22:07;16.40;99.90
61912;DHT22;49973;52.084;5.412;2023-06-22T03:24:38;16.50;99.90
61912;DHT22;49973;52.084;5.412;2023-06-22T03:27:07;16.40;99.90
61912;DHT22;49973;52.084;5.412;2023-06-22T03:29:36;16.50;99.90
61912;DHT22;49973;52.084;5.412;2023-06-22T03:32:06;16.40;99.90
61912;DHT22;49973;52.084;5.412;2023-06-22T03:34:36;16.30;99.90
61912;DHT22;49973;52.084;5.412;2023-06-22T03:37:05;16.30;99.90
61912;DHT22;49973;52.084;5.412;2023-06-22T03:39:33;16.20;99.90
61912;DHT22;49973;52.084;5.412;2023-06-22T03:42:04;16.20;99.90
61912;DHT22;49973;52.084;5.412;2023-06-22T03:44:32;16.20;99.90
61912;DHT22;49973;52.084;5.412;2023-06-22T03:47:05;16.20;99.90
61912;DHT22;49973;52.084;5.412;2023-06-22T03:49:37;16.20;99.90
61912;DHT22;49973;52.084;5.412;2023-06-22T03:52:06;16.20;99.90
61912;DHT22;49973;52.084;5.412;2023-06-22T03:54:35;16.10;99.90
61912;DHT22;49973;52.084;5.412;2023-06-22T03:57:04;16.10;99.90
61912;DHT22;49973;52.084;5.412;2023-06-22T03:59:33;16.10;99.90
61912;DHT22;49973;52.084;5.412;2023-06-22T04:02:02;16.20;99.90
61912;DHT22;49973;52.084;5.412;2023-06-22T04:04:31;16.10;99.90
61912;DHT22;49973;52.084;5.412;2023-06-22T04:07:03;16.10;99.90
61912;DHT22;49973;52.084;5.412;2023-06-22T04:09:31;16.10;99.90
61912;DHT22;49973;52.084;5.412;2023-06-22T04:12:01;16.10;99.90
61912;DHT22;49973;52.084;5.412;2023-06-22T04:14:29;16.10;99.90
61912;DHT22;49973;52.084;5.412;2023-06-22T04:16:58;16.20;99.90
61912;DHT22;49973;52.084;5.412;2023-06-22T04:19:27;16.20;99.90
61912;DHT22;49973;52.084;5.412;2023-06-22T04:21:55;16.20;99.90
61912;DHT22;49973;52.084;5.412;2023-06-22T04:24:25;16.30;99.90
61912;DHT22;49973;52.084;5.412;2023-06-22T04:26:54;16.40;99.90
61912;DHT22;49973;52.084;5.412;2023-06-22T04:29:23;16.60;99.90
61912;DHT22;49973;52.084;5.412;2023-06-22T04:31:56;16.70;99.90
61912;DHT22;49973;52.084;5.412;2023-06-22T04:34:30;16.70;99.90
61912;DHT22;49973;52.084;5.412;2023-06-22T04:36:59;16.80;99.90
61912;DHT22;49973;52.084;5.412;2023-06-22T04:39:29;16.90;99.90
61912;DHT22;49973;52.084;5.412;2023-06-22T04:41:58;17.00;99.90
61912;DHT22;49973;52.084;5.412;2023-06-22T04:44:28;17.10;99.90
61912;DHT22;49973;52.084;5.412;2023-06-22T04:46:57;17.30;99.90
61912;DHT22;49973;52.084;5.412;2023-06-22T04:49:30;17.40;99.90
61912;DHT22;49973;52.084;5.412;2023-06-22T04:52:03;17.60;99.90
61912;DHT22;49973;52.084;5.412;2023-06-22T04:54:34;17.60;99.90
61912;DHT22;49973;52.084;5.412;2023-06-22T04:57:05;17.70;99.90
61912;DHT22;49973;52.084;5.412;2023-06-22T04:59:38;17.80;99.90
61912;DHT22;49973;52.084;5.412;2023-06-22T05:02:09;18.00;99.90
61912;DHT22;49973;52.084;5.412;2023-06-22T05:04:38;18.10;99.90
61912;DHT22;49973;52.084;5.412;2023-06-22T05:07:07;18.20;99.90
61912;DHT22;49973;52.084;5.412;2023-06-22T05:09:38;18.20;99.90
61912;DHT22;49973;52.084;5.412;2023-06-22T05:12:07;18.30;99.90
61912;DHT22;49973;52.084;5.412;2023-06-22T05:14:37;18.30;99.90
61912;DHT22;49973;52.084;5.412;2023-06-22T05:17:06;18.40;99.90
61912;DHT22;49973;52.084;5.412;2023-06-22T05:19:42;18.50;99.90
61912;DHT22;49973;52.084;5.412;2023-06-22T05:22:15;18.50;99.90
61912;DHT22;49973;52.084;5.412;2023-06-22T05:24:46;18.60;99.90
61912;DHT22;49973;52.084;5.412;2023-06-22T05:27:15;18.70;99.90
61912;DHT22;49973;52.084;5.412;2023-06-22T05:29:43;18.80;99.90
61912;DHT22;49973;52.084;5.412;2023-06-22T05:32:12;18.90;99.90
61912;DHT22;49973;52.084;5.412;2023-06-22T05:34:40;19.00;99.90
61912;DHT22;49973;52.084;5.412;2023-06-22T05:37:09;19.00;99.90
61912;DHT22;49973;52.084;5.412;2023-06-22T05:39:40;19.20;99.90
61912;DHT22;49973;52.084;5.412;2023-06-22T05:42:10;19.30;99.90
61912;DHT22;49973;52.084;5.412;2023-06-22T05:44:38;19.40;99.90
61912;DHT22;49973;52.084;5.412;2023-06-22T05:47:08;19.50;99.90
61912;DHT22;49973;52.084;5.412;2023-06-22T05:49:36;19.60;99.90
61912;DHT22;49973;52.084;5.412;2023-06-22T05:52:06;19.70;99.90
61912;DHT22;49973;52.084;5.412;2023-06-22T05:54:34;19.80;99.90
61912;DHT22;49973;52.084;5.412;2023-06-22T05:57:04;19.90;99.90
61912;DHT22;49973;52.084;5.412;2023-06-22T05:59:34;20.00;99.90
61912;DHT22;49973;52.084;5.412;2023-06-22T06:02:03;20.10;99.90
61912;DHT22;49973;52.084;5.412;2023-06-22T06:04:32;20.30;99.90
61912;DHT22;49973;52.084;5.412;2023-06-22T06:07:02;20.40;99.90
61912;DHT22;49973;52.084;5.412;2023-06-22T06:09:31;20.50;99.90
61912;DHT22;49973;52.084;5.412;2023-06-22T06:11:59;20.70;99.90
61912;DHT22;49973;52.084;5.412;2023-06-22T06:14:30;20.90;99.90
61912;DHT22;49973;52.084;5.412;2023-06-22T06:17:00;21.00;99.90
61912;DHT22;49973;52.084;5.412;2023-06-22T06:19:29;21.20;99.90
61912;DHT22;49973;52.084;5.412;2023-06-22T06:21:58;21.20;99.90
61912;DHT22;49973;52.084;5.412;2023-06-22T06:24:27;21.40;99.90
61912;DHT22;49973;52.084;5.412;2023-06-22T06:26:56;21.50;99.90
61912;DHT22;49973;52.084;5.412;2023-06-22T06:29:26;21.60;99.90
61912;DHT22;49973;52.084;5.412;2023-06-22T06:31:55;21.70;99.90
61912;DHT22;49973;52.084;5.412;2023-06-22T06:34:25;21.80;99.90
61912;DHT22;49973;52.084;5.412;2023-06-22T06:36:54;21.90;99.90
61912;DHT22;49973;52.084;5.412;2023-06-22T06:39:23;22.00;99.90
61912;DHT22;49973;52.084;5.412;2023-06-22T06:41:52;22.10;99.90
61912;DHT22;49973;52.084;5.412;2023-06-22T06:44:21;22.20;99.90
61912;DHT22;49973;52.084;5.412;2023-06-22T06:46:51;22.30;99.90
61912;DHT22;49973;52.084;5.412;2023-06-22T06:49:21;22.40;99.90
61912;DHT22;49973;52.084;5.412;2023-06-22T06:51:52;22.60;99.90
61912;DHT22;49973;52.084;5.412;2023-06-22T06:54:23;22.70;99.90
61912;DHT22;49973;52.084;5.412;2023-06-22T06:56:52;22.80;99.90
61912;DHT22;49973;52.084;5.412;2023-06-22T06:59:21;23.10;99.90
61912;DHT22;49973;52.084;5.412;2023-06-22T07:01:50;23.20;99.90
61912;DHT22;49973;52.084;5.412;2023-06-22T07:04:19;23.40;99.90
61912;DHT22;49973;52.084;5.412;2023-06-22T07:06:48;23.50;99.90
61912;DHT22;49973;52.084;5.412;2023-06-22T07:09:19;23.50;99.90
61912;DHT22;49973;52.084;5.412;2023-06-22T07:11:47;23.60;99.90
61912;DHT22;49973;52.084;5.412;2023-06-22T07:14:16;23.60;99.90
61912;DHT22;49973;52.084;5.412;2023-06-22T07:16:45;23.70;99.90
61912;DHT22;49973;52.084;5.412;2023-06-22T07:19:14;23.80;99.90
61912;DHT22;49973;52.084;5.412;2023-06-22T07:21:43;23.90;99.90
61912;DHT22;49973;52.084;5.412;2023-06-22T07:24:12;24.00;99.90
61912;DHT22;49973;52.084;5.412;2023-06-22T07:26:42;24.00;99.90
61912;DHT22;49973;52.084;5.412;2023-06-22T07:29:13;24.10;99.90
61912;DHT22;49973;52.084;5.412;2023-06-22T07:31:42;24.20;99.90
61912;DHT22;49973;52.084;5.412;2023-06-22T07:34:11;24.20;99.90
61912;DHT22;49973;52.084;5.412;2023-06-22T07:36:40;24.30;99.90
61912;DHT22;49973;52.084;5.412;2023-06-22T07:39:09;24.40;99.90
61912;DHT22;49973;52.084;5.412;2023-06-22T07:41:39;24.40;99.90
61912;DHT22;49973;52.084;5.412;2023-06-22T07:44:10;24.50;99.90
61912;DHT22;49973;52.084;5.412;2023-06-22T07:46:38;24.50;99.90
61912;DHT22;49973;52.084;5.412;2023-06-22T07:49:07;24.50;99.90
61912;DHT22;49973;52.084;5.412;2023-06-22T07:51:36;24.60;99.90
61912;DHT22;49973;52.084;5.412;2023-06-22T07:54:05;24.60;99.90
61912;DHT22;49973;52.084;5.412;2023-06-22T07:56:35;24.70;99.90
61912;DHT22;49973;52.084;5.412;2023-06-22T07:59:04;24.70;99.90
61912;DHT22;49973;52.084;5.412;2023-06-22T08:01:34;24.80;99.90
61912;DHT22;49973;52.084;5.412;2023-06-22T08:04:03;24.90;99.90
61912;DHT22;49973;52.084;5.412;2023-06-22T08:06:33;25.00;99.90
61912;DHT22;49973;52.084;5.412;2023-06-22T08:09:02;25.10;99.90
61912;DHT22;49973;52.084;5.412;2023-06-22T08:11:31;25.20;99.90
61912;DHT22;49973;52.084;5.412;2023-06-22T08:14:00;25.40;99.90
61912;DHT22;49973;52.084;5.412;2023-06-22T08:16:29;25.60;99.90
61912;DHT22;49973;52.084;5.412;2023-06-22T08:18:59;25.70;99.90
61912;DHT22;49973;52.084;5.412;2023-06-22T08:21:28;25.90;99.90
61912;DHT22;49973;52.084;5.412;2023-06-22T08:23:57;26.00;99.90
61912;DHT22;49973;52.084;5.412;2023-06-22T08:26:25;26.10;99.90
61912;DHT22;49973;52.084;5.412;2023-06-22T08:28:54;26.20;99.90
61912;DHT22;49973;52.084;5.412;2023-06-22T08:31:23;26.20;99.90
61912;DHT22;49973;52.084;5.412;2023-06-22T08:33:52;26.30;99.90
61912;DHT22;49973;52.084;5.412;2023-06-22T08:36:22;26.30;99.90
61912;DHT22;49973;52.084;5.412;2023-06-22T08:38:51;26.40;99.90
61912;DHT22;49973;52.084;5.412;2023-06-22T08:41:20;26.40;99.90
61912;DHT22;49973;52.084;5.412;2023-06-22T08:43:49;26.50;99.90
61912;DHT22;49973;52.084;5.412;2023-06-22T08:46:18;26.60;99.90
61912;DHT22;49973;52.084;5.412;2023-06-22T08:48:50;26.60;99.90
61912;DHT22;49973;52.084;5.412;2023-06-22T08:51:19;26.50;99.90
61912;DHT22;49973;52.084;5.412;2023-06-22T08:53:49;26.60;99.90
61912;DHT22;49973;52.084;5.412;2023-06-22T08:56:18;26.70;99.90
61912;DHT22;49973;52.084;5.412;2023-06-22T08:58:47;26.70;99.90
61912;DHT22;49973;52.084;5.412;2023-06-22T09:01:15;26.70;99.90
61912;DHT22;49973;52.084;5.412;2023-06-22T09:03:45;26.70;99.90
61912;DHT22;49973;52.084;5.412;2023-06-22T09:06:21;26.80;99.90
61912;DHT22;49973;52.084;5.412;2023-06-22T09:08:52;26.80;99.90
61912;DHT22;49973;52.084;5.412;2023-06-22T09:11:20;26.80;99.90
61912;DHT22;49973;52.084;5.412;2023-06-22T09:13:49;26.80;99.90
61912;DHT22;49973;52.084;5.412;2023-06-22T09:16:19;26.80;99.90
61912;DHT22;49973;52.084;5.412;2023-06-22T09:18:48;26.70;99.90
61912;DHT22;49973;52.084;5.412;2023-06-22T09:21:17;26.70;99.90
61912;DHT22;49973;52.084;5.412;2023-06-22T09:23:46;26.70;99.90
61912;DHT22;49973;52.084;5.412;2023-06-22T09:26:20;26.60;99.90
61912;DHT22;49973;52.084;5.412;2023-06-22T09:28:50;26.60;99.90
61912;DHT22;49973;52.084;5.412;2023-06-22T09:31:18;26.60;99.90
61912;DHT22;49973;52.084;5.412;2023-06-22T09:33:53;26.70;99.90
61912;DHT22;49973;52.084;5.412;2023-06-22T09:36:22;26.70;99.90
61912;DHT22;49973;52.084;5.412;2023-06-22T09:38:51;26.90;99.90
61912;DHT22;49973;52.084;5.412;2023-06-22T09:41:24;27.00;99.90
61912;DHT22;49973;52.084;5.412;2023-06-22T09:43:53;27.10;99.90
61912;DHT22;49973;52.084;5.412;2023-06-22T09:46:23;27.10;99.90
61912;DHT22;49973;52.084;5.412;2023-06-22T09:48:52;27.20;99.90
61912;DHT22;49973;52.084;5.412;2023-06-22T09:51:21;27.20;99.90
61912;DHT22;49973;52.084;5.412;2023-06-22T09:53:51;27.10;99.90
61912;DHT22;49973;52.084;5.412;2023-06-22T09:56:21;27.00;99.90
61912;DHT22;49973;52.084;5.412;2023-06-22T09:58:51;26.90;99.90
61912;DHT22;49973;52.084;5.412;2023-06-22T10:01:20;26.80;99.90
61912;DHT22;49973;52.084;5.412;2023-06-22T10:03:52;26.70;99.90
61912;DHT22;49973;52.084;5.412;2023-06-22T10:06:22;26.50;99.90
61912;DHT22;49973;52.084;5.412;2023-06-22T10:08:52;26.40;99.90
61912;DHT22;49973;52.084;5.412;2023-06-22T10:11:21;26.30;99.90
61912;DHT22;49973;52.084;5.412;2023-06-22T10:13:55;26.20;99.90
61912;DHT22;49973;52.084;5.412;2023-06-22T10:16:30;26.10;99.90
61912;DHT22;49973;52.084;5.412;2023-06-22T10:18:59;26.00;99.90
61912;DHT22;49973;52.084;5.412;2023-06-22T10:21:28;25.90;99.90
61912;DHT22;49973;52.084;5.412;2023-06-22T10:23:57;25.80;99.90
61912;DHT22;49973;52.084;5.412;2023-06-22T10:26:26;25.80;99.90
61912;DHT22;49973;52.084;5.412;2023-06-22T10:28:57;25.70;99.90
61912;DHT22;49973;52.084;5.412;2023-06-22T10:31:43;25.60;99.90
61912;DHT22;49973;52.084;5.412;2023-06-22T10:34:11;25.50;99.90
61912;DHT22;49973;52.084;5.412;2023-06-22T10:36:40;25.40;99.90
61912;DHT22;49973;52.084;5.412;2023-06-22T10:39:09;25.40;99.90
61912;DHT22;49973;52.084;5.412;2023-06-22T10:41:38;25.30;99.90
61912;DHT22;49973;52.084;5.412;2023-06-22T10:44:08;25.30;99.90
61912;DHT22;49973;52.084;5.412;2023-06-22T10:46:36;25.20;99.90
61912;DHT22;49973;52.084;5.412;2023-06-22T10:49:05;25.20;99.90
61912;DHT22;49973;52.084;5.412;2023-06-22T10:51:34;25.20;99.90
61912;DHT22;49973;52.084;5.412;2023-06-22T10:54:03;25.10;99.90
61912;DHT22;49973;52.084;5.412;2023-06-22T10:56:31;25.10;99.90
61912;DHT22;49973;52.084;5.412;2023-06-22T10:59:01;25.10;99.90
61912;DHT22;49973;52.084;5.412;2023-06-22T11:01:31;25.10;99.90
61912;DHT22;49973;52.084;5.412;2023-06-22T11:04:03;25.10;99.90
61912;DHT22;49973;52.084;5.412;2023-06-22T11:06:32;25.10;99.90
61912;DHT22;49973;52.084;5.412;2023-06-22T11:09:01;25.10;99.90
61912;DHT22;49973;52.084;5.412;2023-06-22T11:11:51;25.20;99.90
61912;DHT22;49973;52.084;5.412;2023-06-22T11:14:21;25.20;99.90
61912;DHT22;49973;52.084;5.412;2023-06-22T11:16:52;25.20;99.90
61912;DHT22;49973;52.084;5.412;2023-06-22T11:19:21;25.20;99.90
61912;DHT22;49973;52.084;5.412;2023-06-22T11:21:49;25.30;99.90
61912;DHT22;49973;52.084;5.412;2023-06-22T11:24:18;25.30;99.90
61912;DHT22;49973;52.084;5.412;2023-06-22T11:26:47;25.30;99.90
61912;DHT22;49973;52.084;5.412;2023-06-22T11:29:16;25.40;99.90
61912;DHT22;49973;52.084;5.412;2023-06-22T11:32:05;25.40;99.90
61912;DHT22;49973;52.084;5.412;2023-06-22T11:34:34;25.50;99.90
61912;DHT22;49973;52.084;5.412;2023-06-22T11:37:03;25.50;99.90
61912;DHT22;49973;52.084;5.412;2023-06-22T11:39:32;25.50;99.90
61912;DHT22;49973;52.084;5.412;2023-06-22T11:42:15;25.50;99.90
61912;DHT22;49973;52.084;5.412;2023-06-22T11:44:43;25.50;99.90
61912;DHT22;49973;52.084;5.412;2023-06-22T11:47:14;25.50;99.90
61912;DHT22;49973;52.084;5.412;2023-06-22T11:49:42;25.50;99.90
61912;DHT22;49973;52.084;5.412;2023-06-22T11:52:11;25.60;99.90
61912;DHT22;49973;52.084;5.412;2023-06-22T11:54:40;25.60;99.90
61912;DHT22;49973;52.084;5.412;2023-06-22T11:57:08;25.50;99.90
61912;DHT22;49973;52.084;5.412;2023-06-22T11:59:37;25.60;99.90
61912;DHT22;49973;52.084;5.412;2023-06-22T12:02:06;25.50;99.90
61912;DHT22;49973;52.084;5.412;2023-06-22T12:04:37;25.50;99.90
61912;DHT22;49973;52.084;5.412;2023-06-22T12:07:06;25.50;99.90
61912;DHT22;49973;52.084;5.412;2023-06-22T12:09:35;25.50;99.90
61912;DHT22;49973;52.084;5.412;2023-06-22T12:12:04;25.50;99.90
61912;DHT22;49973;52.084;5.412;2023-06-22T12:14:33;25.50;99.90
61912;DHT22;49973;52.084;5.412;2023-06-22T12:17:02;25.50;99.90
61912;DHT22;49973;52.084;5.412;2023-06-22T12:19:31;25.40;99.90
61912;DHT22;49973;52.084;5.412;2023-06-22T12:22:01;25.30;99.90
61912;DHT22;49973;52.084;5.412;2023-06-22T12:24:30;25.20;99.90
61912;DHT22;49973;52.084;5.412;2023-06-22T12:26:59;25.10;99.90
61912;DHT22;49973;52.084;5.412;2023-06-22T12:29:29;24.90;99.90
61912;DHT22;49973;52.084;5.412;2023-06-22T12:31:58;24.70;99.90
61912;DHT22;49973;52.084;5.412;2023-06-22T12:34:27;24.60;99.90
61912;DHT22;49973;52.084;5.412;2023-06-22T12:36:55;24.40;99.90
61912;DHT22;49973;52.084;5.412;2023-06-22T12:39:26;24.10;99.90
61912;DHT22;49973;52.084;5.412;2023-06-22T12:41:55;23.90;99.90
61912;DHT22;49973;52.084;5.412;2023-06-22T12:44:24;23.70;99.90
61912;DHT22;49973;52.084;5.412;2023-06-22T12:46:53;23.50;99.90
61912;DHT22;49973;52.084;5.412;2023-06-22T12:49:22;23.40;99.90
61912;DHT22;49973;52.084;5.412;2023-06-22T12:51:51;23.20;99.90
61912;DHT22;49973;52.084;5.412;2023-06-22T12:54:20;23.00;99.90
61912;DHT22;49973;52.084;5.412;2023-06-22T12:56:51;22.80;99.90
61912;DHT22;49973;52.084;5.412;2023-06-22T12:59:22;22.60;99.90
61912;DHT22;49973;52.084;5.412;2023-06-22T13:01:51;22.40;99.90
61912;DHT22;49973;52.084;5.412;2023-06-22T13:04:20;22.30;99.90
61912;DHT22;49973;52.084;5.412;2023-06-22T13:06:49;22.10;99.90
61912;DHT22;49973;52.084;5.412;2023-06-22T13:09:19;22.10;99.90
61912;DHT22;49973;52.084;5.412;2023-06-22T13:11:48;22.00;99.90
61912;DHT22;49973;52.084;5.412;2023-06-22T13:14:18;21.90;99.90
61912;DHT22;49973;52.084;5.412;2023-06-22T13:16:47;21.90;99.90
61912;DHT22;49973;52.084;5.412;2023-06-22T13:19:16;21.90;99.90
61912;DHT22;49973;52.084;5.412;2023-06-22T13:21:45;21.70;99.90
61912;DHT22;49973;52.084;5.412;2023-06-22T13:24:14;21.90;99.90
61912;DHT22;49973;52.084;5.412;2023-06-22T13:26:43;21.80;99.90
61912;DHT22;49973;52.084;5.412;2023-06-22T13:29:12;21.80;99.90
61912;DHT22;49973;52.084;5.412;2023-06-22T13:31:42;21.80;99.90
61912;DHT22;49973;52.084;5.412;2023-06-22T13:34:11;21.80;99.90
61912;DHT22;49973;52.084;5.412;2023-06-22T13:36:40;21.80;99.90
61912;DHT22;49973;52.084;5.412;2023-06-22T13:39:09;21.80;99.90
61912;DHT22;49973;52.084;5.412;2023-06-22T13:41:37;21.80;99.90
61912;DHT22;49973;52.084;5.412;2023-06-22T13:44:06;21.80;99.90
61912;DHT22;49973;52.084;5.412;2023-06-22T13:46:35;21.80;99.90
61912;DHT22;49973;52.084;5.412;2023-06-22T13:49:05;21.70;99.90
61912;DHT22;49973;52.084;5.412;2023-06-22T13:51:35;21.80;99.90
61912;DHT22;49973;52.084;5.412;2023-06-22T13:54:04;21.80;99.90
61912;DHT22;49973;52.084;5.412;2023-06-22T13:56:53;21.80;99.90
61912;DHT22;49973;52.084;5.412;2023-06-22T13:59:22;21.80;99.90
61912;DHT22;49973;52.084;5.412;2023-06-22T14:01:51;21.80;99.90
61912;DHT22;49973;52.084;5.412;2023-06-22T14:04:22;21.90;99.90
61912;DHT22;49973;52.084;5.412;2023-06-22T14:06:51;21.90;99.90
61912;DHT22;49973;52.084;5.412;2023-06-22T14:09:23;22.00;99.90
61912;DHT22;49973;52.084;5.412;2023-06-22T14:11:54;22.00;99.90
61912;DHT22;49973;52.084;5.412;2023-06-22T14:14:23;21.90;99.90
61912;DHT22;49973;52.084;5.412;2023-06-22T14:16:52;21.90;99.90
61912;DHT22;49973;52.084;5.412;2023-06-22T14:19:22;21.90;99.90
61912;DHT22;49973;52.084;5.412;2023-06-22T14:21:51;21.80;99.90
61912;DHT22;49973;52.084;5.412;2023-06-22T14:24:19;21.70;99.90
61912;DHT22;49973;52.084;5.412;2023-06-22T14:26:51;21.70;99.90
61912;DHT22;49973;52.084;5.412;2023-06-22T14:29:20;21.70;99.90
61912;DHT22;49973;52.084;5.412;2023-06-22T14:31:49;21.60;99.90
61912;DHT22;49973;52.084;5.412;2023-06-22T14:34:18;21.60;99.90
61912;DHT22;49973;52.084;5.412;2023-06-22T14:36:48;21.50;99.90
61912;DHT22;49973;52.084;5.412;2023-06-22T14:39:17;21.40;99.90
61912;DHT22;49973;52.084;5.412;2023-06-22T14:41:46;21.40;99.90
61912;DHT22;49973;52.084;5.412;2023-06-22T14:44:15;21.40;99.90
61912;DHT22;49973;52.084;5.412;2023-06-22T14:46:43;21.30;99.90
61912;DHT22;49973;52.084;5.412;2023-06-22T14:49:12;21.30;99.90
61912;DHT22;49973;52.084;5.412;2023-06-22T14:51:41;21.30;99.90
61912;DHT22;49973;52.084;5.412;2023-06-22T14:54:11;21.20;99.90
61912;DHT22;49973;52.084;5.412;2023-06-22T14:56:39;21.20;99.90
61912;DHT22;49973;52.084;5.412;2023-06-22T14:59:09;21.10;99.90
61912;DHT22;49973;52.084;5.412;2023-06-22T15:01:38;21.00;99.90
61912;DHT22;49973;52.084;5.412;2023-06-22T15:04:08;21.00;99.90
61912;DHT22;49973;52.084;5.412;2023-06-22T15:06:37;20.90;99.90
61912;DHT22;49973;52.084;5.412;2023-06-22T15:09:06;20.80;99.90
61912;DHT22;49973;52.084;5.412;2023-06-22T15:11:36;20.70;99.90
61912;DHT22;49973;52.084;5.412;2023-06-22T15:14:04;20.60;99.90
61912;DHT22;49973;52.084;5.412;2023-06-22T15:16:34;20.50;99.90
61912;DHT22;49973;52.084;5.412;2023-06-22T15:19:02;20.30;99.90
61912;DHT22;49973;52.084;5.412;2023-06-22T15:21:31;20.20;99.90
61912;DHT22;49973;52.084;5.412;2023-06-22T15:24:00;20.20;99.90
61912;DHT22;49973;52.084;5.412;2023-06-22T15:26:29;20.10;99.90
61912;DHT22;49973;52.084;5.412;2023-06-22T15:28:59;20.00;99.90
61912;DHT22;49973;52.084;5.412;2023-06-22T15:31:28;20.00;99.90
61912;DHT22;49973;52.084;5.412;2023-06-22T15:33:57;19.90;99.90
61912;DHT22;49973;52.084;5.412;2023-06-22T15:36:26;19.90;99.90
61912;DHT22;49973;52.084;5.412;2023-06-22T15:38:54;19.90;99.90
61912;DHT22;49973;52.084;5.412;2023-06-22T15:41:23;19.80;99.90
61912;DHT22;49973;52.084;5.412;2023-06-22T15:43:51;19.80;99.90
61912;DHT22;49973;52.084;5.412;2023-06-22T15:46:22;19.80;99.90